sensor_id;sensor_type;location;lat;lon;timestamp;P1;durP1;ratioP1;P2;durP2;ratioP2
27833;SDS011;15200;50.570;7.244;2022-12-07T00:01:07;20.00;;;11.87;;
27833;SDS011;15200;50.570;7.244;2022-12-07T00:03:35;18.10;;;10.75;;
27833;SDS011;15200;50.570;7.244;2022-12-07T00:06:03;19.92;;;11.18;;
27833;SDS011;15200;50.570;7.244;2022-12-07T00:08:31;17.27;;;11.77;;
27833;SDS011;15200;50.570;7.244;2022-12-07T00:11:11;18.57;;;10.90;;
27833;SDS011;15200;50.570;7.244;2022-12-07T00:13:34;18.10;;;11.80;;
27833;SDS011;15200;50.570;7.244;2022-12-07T00:16:06;18.83;;;10.97;;
27833;SDS011;15200;50.570;7.244;2022-12-07T00:18:34;19.60;;;12.33;;
27833;SDS011;15200;50.570;7.244;2022-12-07T00:23:30;19.63;;;12.50;;
27833;SDS011;15200;50.570;7.244;2022-12-07T00:26:03;23.13;;;12.40;;
27833;SDS011;15200;50.570;7.244;2022-12-07T00:28:26;20.23;;;11.77;;
27833;SDS011;15200;50.570;7.244;2022-12-07T00:30:59;19.43;;;11.07;;
27833;SDS011;15200;50.570;7.244;2022-12-07T00:33:22;17.67;;;10.77;;
27833;SDS011;15200;50.570;7.244;2022-12-07T00:35:54;21.97;;;11.80;;
27833;SDS011;15200;50.570;7.244;2022-12-07T00:38:18;20.90;;;12.10;;
27833;SDS011;15200;50.570;7.244;2022-12-07T00:40:53;19.13;;;11.57;;
27833;SDS011;15200;50.570;7.244;2022-12-07T00:43:15;19.43;;;11.27;;
27833;SDS011;15200;50.570;7.244;2022-12-07T00:45:42;21.62;;;12.50;;
27833;SDS011;15200;50.570;7.244;2022-12-07T00:48:09;17.80;;;11.27;;
27833;SDS011;15200;50.570;7.244;2022-12-07T00:50:36;21.90;;;12.87;;
27833;SDS011;15200;50.570;7.244;2022-12-07T00:53:04;18.20;;;11.60;;
27833;SDS011;15200;50.570;7.244;2022-12-07T00:55:34;18.50;;;11.77;;
27833;SDS011;15200;50.570;7.244;2022-12-07T00:58:02;21.00;;;12.93;;
27833;SDS011;15200;50.570;7.244;2022-12-07T01:00:29;20.13;;;11.63;;
27833;SDS011;15200;50.570;7.244;2022-12-07T01:02:57;18.87;;;11.47;;
27833;SDS011;15200;50.570;7.244;2022-12-07T01:05:24;19.30;;;12.67;;
27833;SDS011;15200;50.570;7.244;2022-12-07T01:07:51;21.20;;;12.47;;
27833;SDS011;15200;50.570;7.244;2022-12-07T01:10:19;19.23;;;11.27;;
27833;SDS011;15200;50.570;7.244;2022-12-07T01:12:46;18.97;;;11.23;;
27833;SDS011;15200;50.570;7.244;2022-12-07T01:15:14;19.23;;;11.50;;
27833;SDS011;15200;50.570;7.244;2022-12-07T01:17:41;18.02;;;11.18;;
27833;SDS011;15200;50.570;7.244;2022-12-07T01:20:08;17.33;;;10.67;;
27833;SDS011;15200;50.570;7.244;2022-12-07T01:22:39;15.77;;;10.60;;
27833;SDS011;15200;50.570;7.244;2022-12-07T01:25:07;16.43;;;10.70;;
27833;SDS011;15200;50.570;7.244;2022-12-07T01:27:35;16.83;;;10.50;;
27833;SDS011;15200;50.570;7.244;2022-12-07T01:30:03;18.20;;;10.73;;
27833;SDS011;15200;50.570;7.244;2022-12-07T01:32:31;17.60;;;11.37;;
27833;SDS011;15200;50.570;7.244;2022-12-07T01:34:59;17.77;;;10.70;;
27833;SDS011;15200;50.570;7.244;2022-12-07T01:37:26;20.57;;;11.23;;
27833;SDS011;15200;50.570;7.244;2022-12-07T01:39:54;14.90;;;10.20;;
27833;SDS011;15200;50.570;7.244;2022-12-07T01:42:21;16.47;;;10.87;;
27833;SDS011;15200;50.570;7.244;2022-12-07T01:47:34;16.23;;;10.87;;
27833;SDS011;15200;50.570;7.244;2022-12-07T01:50:01;16.70;;;10.90;;
27833;SDS011;15200;50.570;7.244;2022-12-07T01:52:30;19.07;;;10.37;;
27833;SDS011;15200;50.570;7.244;2022-12-07T01:55:06;16.97;;;10.53;;
27833;SDS011;15200;50.570;7.244;2022-12-07T01:57:34;18.40;;;11.37;;
27833;SDS011;15200;50.570;7.244;2022-12-07T02:00:03;16.30;;;9.97;;
27833;SDS011;15200;50.570;7.244;2022-12-07T02:02:31;19.57;;;11.07;;
27833;SDS011;15200;50.570;7.244;2022-12-07T02:05:00;15.93;;;10.20;;
27833;SDS011;15200;50.570;7.244;2022-12-07T02:07:28;17.90;;;11.20;;
27833;SDS011;15200;50.570;7.244;2022-12-07T02:09:56;18.07;;;10.73;;
27833;SDS011;15200;50.570;7.244;2022-12-07T02:12:23;15.93;;;10.53;;
27833;SDS011;15200;50.570;7.244;2022-12-07T02:14:51;15.83;;;10.50;;
27833;SDS011;15200;50.570;7.244;2022-12-07T02:17:25;16.90;;;10.07;;
27833;SDS011;15200;50.570;7.244;2022-12-07T02:20:02;15.80;;;10.17;;
27833;SDS011;15200;50.570;7.244;2022-12-07T02:22:53;18.62;;;10.65;;
27833;SDS011;15200;50.570;7.244;2022-12-07T02:25:24;17.00;;;10.40;;
27833;SDS011;15200;50.570;7.244;2022-12-07T02:27:56;15.47;;;10.57;;
27833;SDS011;15200;50.570;7.244;2022-12-07T02:30:21;14.33;;;10.15;;
27833;SDS011;15200;50.570;7.244;2022-12-07T02:33:01;16.73;;;10.27;;
27833;SDS011;15200;50.570;7.244;2022-12-07T02:37:55;17.90;;;11.17;;
27833;SDS011;15200;50.570;7.244;2022-12-07T02:40:27;21.93;;;11.08;;
27833;SDS011;15200;50.570;7.244;2022-12-07T02:42:56;18.50;;;11.13;;
27833;SDS011;15200;50.570;7.244;2022-12-07T02:45:22;16.90;;;11.13;;
27833;SDS011;15200;50.570;7.244;2022-12-07T02:47:51;16.73;;;10.63;;
27833;SDS011;15200;50.570;7.244;2022-12-07T02:50:20;22.53;;;11.53;;
27833;SDS011;15200;50.570;7.244;2022-12-07T02:52:48;16.37;;;10.53;;
27833;SDS011;15200;50.570;7.244;2022-12-07T02:55:16;16.25;;;10.43;;
27833;SDS011;15200;50.570;7.244;2022-12-07T03:00:17;16.97;;;9.80;;
27833;SDS011;15200;50.570;7.244;2022-12-07T03:02:48;14.65;;;10.20;;
27833;SDS011;15200;50.570;7.244;2022-12-07T03:08:06;17.42;;;10.82;;
27833;SDS011;15200;50.570;7.244;2022-12-07T03:10:40;16.30;;;10.17;;
27833;SDS011;15200;50.570;7.244;2022-12-07T03:18:12;20.13;;;10.80;;
27833;SDS011;15200;50.570;7.244;2022-12-07T03:20:40;19.80;;;10.90;;
27833;SDS011;15200;50.570;7.244;2022-12-07T03:23:09;14.33;;;9.47;;
27833;SDS011;15200;50.570;7.244;2022-12-07T03:25:41;18.42;;;10.58;;
27833;SDS011;15200;50.570;7.244;2022-12-07T03:28:08;17.37;;;10.73;;
27833;SDS011;15200;50.570;7.244;2022-12-07T03:30:51;17.05;;;9.83;;
27833;SDS011;15200;50.570;7.244;2022-12-07T03:33:20;14.27;;;9.97;;
27833;SDS011;15200;50.570;7.244;2022-12-07T03:36:23;14.17;;;9.83;;
27833;SDS011;15200;50.570;7.244;2022-12-07T03:38:28;17.48;;;10.72;;
27833;SDS011;15200;50.570;7.244;2022-12-07T03:40:54;15.45;;;10.45;;
27833;SDS011;15200;50.570;7.244;2022-12-07T03:43:20;23.15;;;11.68;;
27833;SDS011;15200;50.570;7.244;2022-12-07T03:46:00;19.40;;;11.80;;
27833;SDS011;15200;50.570;7.244;2022-12-07T03:48:27;18.45;;;10.55;;
27833;SDS011;15200;50.570;7.244;2022-12-07T03:51:06;17.43;;;11.33;;
27833;SDS011;15200;50.570;7.244;2022-12-07T03:53:30;17.37;;;11.90;;
27833;SDS011;15200;50.570;7.244;2022-12-07T03:55:57;16.90;;;11.38;;
27833;SDS011;15200;50.570;7.244;2022-12-07T03:58:25;17.47;;;11.17;;
27833;SDS011;15200;50.570;7.244;2022-12-07T04:00:53;18.07;;;11.80;;
27833;SDS011;15200;50.570;7.244;2022-12-07T04:03:20;20.70;;;12.83;;
27833;SDS011;15200;50.570;7.244;2022-12-07T04:05:48;20.13;;;12.83;;
27833;SDS011;15200;50.570;7.244;2022-12-07T04:08:15;17.82;;;12.13;;
27833;SDS011;15200;50.570;7.244;2022-12-07T04:10:43;19.23;;;12.57;;
27833;SDS011;15200;50.570;7.244;2022-12-07T04:13:10;23.47;;;11.93;;
27833;SDS011;15200;50.570;7.244;2022-12-07T04:15:37;16.93;;;11.47;;
27833;SDS011;15200;50.570;7.244;2022-12-07T04:18:04;19.87;;;11.70;;
27833;SDS011;15200;50.570;7.244;2022-12-07T04:20:32;18.87;;;12.77;;
27833;SDS011;15200;50.570;7.244;2022-12-07T04:22:59;24.40;;;12.90;;
27833;SDS011;15200;50.570;7.244;2022-12-07T04:25:26;21.60;;;12.57;;
27833;SDS011;15200;50.570;7.244;2022-12-07T04:27:54;20.20;;;12.20;;
27833;SDS011;15200;50.570;7.244;2022-12-07T04:30:21;20.00;;;12.90;;
27833;SDS011;15200;50.570;7.244;2022-12-07T04:32:48;22.33;;;13.33;;
27833;SDS011;15200;50.570;7.244;2022-12-07T04:35:16;22.27;;;14.90;;
27833;SDS011;15200;50.570;7.244;2022-12-07T04:37:43;18.67;;;12.93;;
27833;SDS011;15200;50.570;7.244;2022-12-07T04:40:10;22.80;;;14.03;;
27833;SDS011;15200;50.570;7.244;2022-12-07T04:42:39;20.97;;;14.00;;
27833;SDS011;15200;50.570;7.244;2022-12-07T04:45:07;24.23;;;14.80;;
27833;SDS011;15200;50.570;7.244;2022-12-07T04:47:35;25.40;;;14.97;;
27833;SDS011;15200;50.570;7.244;2022-12-07T04:50:02;27.17;;;15.07;;
27833;SDS011;15200;50.570;7.244;2022-12-07T04:52:29;26.07;;;14.90;;
27833;SDS011;15200;50.570;7.244;2022-12-07T04:54:57;23.00;;;15.20;;
27833;SDS011;15200;50.570;7.244;2022-12-07T04:57:24;27.50;;;15.93;;
27833;SDS011;15200;50.570;7.244;2022-12-07T04:59:51;26.50;;;15.23;;
27833;SDS011;15200;50.570;7.244;2022-12-07T05:02:18;25.53;;;14.60;;
27833;SDS011;15200;50.570;7.244;2022-12-07T05:04:46;21.77;;;13.93;;
27833;SDS011;15200;50.570;7.244;2022-12-07T05:07:13;17.67;;;11.80;;
27833;SDS011;15200;50.570;7.244;2022-12-07T05:09:40;17.47;;;11.90;;
27833;SDS011;15200;50.570;7.244;2022-12-07T05:12:08;17.50;;;11.87;;
27833;SDS011;15200;50.570;7.244;2022-12-07T05:14:35;21.37;;;13.93;;
27833;SDS011;15200;50.570;7.244;2022-12-07T05:17:02;25.23;;;15.77;;
27833;SDS011;15200;50.570;7.244;2022-12-07T05:19:30;27.95;;;16.65;;
27833;SDS011;15200;50.570;7.244;2022-12-07T05:21:57;25.03;;;16.50;;
27833;SDS011;15200;50.570;7.244;2022-12-07T05:24:25;29.00;;;17.50;;
27833;SDS011;15200;50.570;7.244;2022-12-07T05:26:52;28.70;;;17.90;;
27833;SDS011;15200;50.570;7.244;2022-12-07T05:29:19;29.30;;;16.32;;
27833;SDS011;15200;50.570;7.244;2022-12-07T05:31:47;29.87;;;16.57;;
27833;SDS011;15200;50.570;7.244;2022-12-07T05:34:14;30.80;;;15.67;;
27833;SDS011;15200;50.570;7.244;2022-12-07T05:36:41;25.67;;;15.40;;
27833;SDS011;15200;50.570;7.244;2022-12-07T05:39:09;27.23;;;16.43;;
27833;SDS011;15200;50.570;7.244;2022-12-07T05:41:37;27.73;;;16.47;;
27833;SDS011;15200;50.570;7.244;2022-12-07T05:44:22;27.87;;;15.83;;
27833;SDS011;15200;50.570;7.244;2022-12-07T05:46:50;25.27;;;15.93;;
27833;SDS011;15200;50.570;7.244;2022-12-07T05:49:17;24.50;;;17.02;;
27833;SDS011;15200;50.570;7.244;2022-12-07T05:51:44;26.43;;;16.47;;
27833;SDS011;15200;50.570;7.244;2022-12-07T05:54:12;32.27;;;16.30;;
27833;SDS011;15200;50.570;7.244;2022-12-07T05:56:39;28.53;;;16.77;;
27833;SDS011;15200;50.570;7.244;2022-12-07T05:59:07;28.57;;;16.80;;
27833;SDS011;15200;50.570;7.244;2022-12-07T06:01:51;28.47;;;17.47;;
27833;SDS011;15200;50.570;7.244;2022-12-07T06:04:18;25.33;;;15.10;;
27833;SDS011;15200;50.570;7.244;2022-12-07T06:06:46;28.93;;;17.40;;
27833;SDS011;15200;50.570;7.244;2022-12-07T06:09:14;31.67;;;18.47;;
27833;SDS011;15200;50.570;7.244;2022-12-07T06:11:42;31.02;;;16.77;;
27833;SDS011;15200;50.570;7.244;2022-12-07T06:14:27;30.23;;;16.37;;
27833;SDS011;15200;50.570;7.244;2022-12-07T06:16:54;28.53;;;16.17;;
27833;SDS011;15200;50.570;7.244;2022-12-07T06:19:21;23.63;;;15.73;;
27833;SDS011;15200;50.570;7.244;2022-12-07T06:21:49;25.20;;;15.83;;
27833;SDS011;15200;50.570;7.244;2022-12-07T06:24:16;25.30;;;15.73;;
27833;SDS011;15200;50.570;7.244;2022-12-07T06:26:44;26.50;;;15.47;;
27833;SDS011;15200;50.570;7.244;2022-12-07T06:29:12;24.00;;;14.53;;
27833;SDS011;15200;50.570;7.244;2022-12-07T06:31:39;24.98;;;14.83;;
27833;SDS011;15200;50.570;7.244;2022-12-07T06:34:11;24.12;;;13.38;;
27833;SDS011;15200;50.570;7.244;2022-12-07T06:36:39;21.53;;;12.30;;
27833;SDS011;15200;50.570;7.244;2022-12-07T06:39:07;18.43;;;12.67;;
27833;SDS011;15200;50.570;7.244;2022-12-07T06:41:36;25.90;;;12.63;;
27833;SDS011;15200;50.570;7.244;2022-12-07T06:44:08;23.33;;;12.03;;
27833;SDS011;15200;50.570;7.244;2022-12-07T06:46:32;23.65;;;13.43;;
27833;SDS011;15200;50.570;7.244;2022-12-07T06:49:02;24.40;;;13.63;;
27833;SDS011;15200;50.570;7.244;2022-12-07T06:51:29;24.13;;;14.00;;
27833;SDS011;15200;50.570;7.244;2022-12-07T06:53:56;26.37;;;14.27;;
27833;SDS011;15200;50.570;7.244;2022-12-07T06:56:24;26.97;;;14.23;;
27833;SDS011;15200;50.570;7.244;2022-12-07T06:58:51;22.83;;;14.17;;
27833;SDS011;15200;50.570;7.244;2022-12-07T07:01:18;25.60;;;13.70;;
27833;SDS011;15200;50.570;7.244;2022-12-07T07:03:46;23.13;;;14.73;;
27833;SDS011;15200;50.570;7.244;2022-12-07T07:06:13;25.13;;;14.43;;
27833;SDS011;15200;50.570;7.244;2022-12-07T07:08:41;25.07;;;14.30;;
27833;SDS011;15200;50.570;7.244;2022-12-07T07:11:09;24.37;;;15.03;;
27833;SDS011;15200;50.570;7.244;2022-12-07T07:13:36;26.23;;;14.03;;
27833;SDS011;15200;50.570;7.244;2022-12-07T07:16:04;23.98;;;11.68;;
27833;SDS011;15200;50.570;7.244;2022-12-07T07:18:31;19.50;;;12.30;;
27833;SDS011;15200;50.570;7.244;2022-12-07T07:20:59;21.40;;;12.03;;
27833;SDS011;15200;50.570;7.244;2022-12-07T07:23:27;18.77;;;11.83;;
27833;SDS011;15200;50.570;7.244;2022-12-07T07:25:54;20.87;;;12.33;;
27833;SDS011;15200;50.570;7.244;2022-12-07T07:28:22;20.82;;;12.45;;
27833;SDS011;15200;50.570;7.244;2022-12-07T07:30:49;21.47;;;13.00;;
27833;SDS011;15200;50.570;7.244;2022-12-07T07:33:17;20.37;;;11.57;;
27833;SDS011;15200;50.570;7.244;2022-12-07T07:35:44;23.87;;;12.27;;
27833;SDS011;15200;50.570;7.244;2022-12-07T07:38:12;24.50;;;12.98;;
27833;SDS011;15200;50.570;7.244;2022-12-07T07:40:39;19.48;;;12.00;;
27833;SDS011;15200;50.570;7.244;2022-12-07T07:43:06;20.80;;;13.00;;
27833;SDS011;15200;50.570;7.244;2022-12-07T07:45:34;25.43;;;13.68;;
27833;SDS011;15200;50.570;7.244;2022-12-07T07:48:01;18.73;;;12.70;;
27833;SDS011;15200;50.570;7.244;2022-12-07T07:50:28;22.50;;;12.37;;
27833;SDS011;15200;50.570;7.244;2022-12-07T07:52:56;21.57;;;11.50;;
27833;SDS011;15200;50.570;7.244;2022-12-07T07:55:24;18.57;;;11.78;;
27833;SDS011;15200;50.570;7.244;2022-12-07T07:57:51;19.23;;;10.15;;
27833;SDS011;15200;50.570;7.244;2022-12-07T08:00:19;21.48;;;9.55;;
27833;SDS011;15200;50.570;7.244;2022-12-07T08:02:46;15.50;;;8.77;;
27833;SDS011;15200;50.570;7.244;2022-12-07T08:05:13;14.83;;;8.43;;
27833;SDS011;15200;50.570;7.244;2022-12-07T08:07:41;16.73;;;9.53;;
27833;SDS011;15200;50.570;7.244;2022-12-07T08:10:09;17.60;;;9.00;;
27833;SDS011;15200;50.570;7.244;2022-12-07T08:12:41;18.40;;;8.58;;
27833;SDS011;15200;50.570;7.244;2022-12-07T08:15:27;13.07;;;9.13;;
27833;SDS011;15200;50.570;7.244;2022-12-07T08:17:54;14.83;;;9.00;;
27833;SDS011;15200;50.570;7.244;2022-12-07T08:20:22;16.07;;;8.65;;
27833;SDS011;15200;50.570;7.244;2022-12-07T08:22:49;11.73;;;8.50;;
27833;SDS011;15200;50.570;7.244;2022-12-07T08:25:17;19.77;;;10.37;;
27833;SDS011;15200;50.570;7.244;2022-12-07T08:27:44;11.80;;;8.13;;
27833;SDS011;15200;50.570;7.244;2022-12-07T08:30:12;13.60;;;8.25;;
27833;SDS011;15200;50.570;7.244;2022-12-07T08:32:39;16.87;;;8.40;;
27833;SDS011;15200;50.570;7.244;2022-12-07T08:35:07;13.88;;;8.10;;
27833;SDS011;15200;50.570;7.244;2022-12-07T08:37:34;13.05;;;8.15;;
27833;SDS011;15200;50.570;7.244;2022-12-07T08:40:02;13.62;;;7.40;;
27833;SDS011;15200;50.570;7.244;2022-12-07T08:42:29;13.70;;;8.73;;
27833;SDS011;15200;50.570;7.244;2022-12-07T08:44:58;13.03;;;8.13;;
27833;SDS011;15200;50.570;7.244;2022-12-07T08:47:26;18.05;;;9.35;;
27833;SDS011;15200;50.570;7.244;2022-12-07T08:49:53;16.87;;;9.13;;
27833;SDS011;15200;50.570;7.244;2022-12-07T08:52:21;15.83;;;9.05;;
27833;SDS011;15200;50.570;7.244;2022-12-07T08:54:48;15.48;;;9.28;;
27833;SDS011;15200;50.570;7.244;2022-12-07T08:57:16;12.73;;;9.00;;
27833;SDS011;15200;50.570;7.244;2022-12-07T08:59:43;16.32;;;9.53;;
27833;SDS011;15200;50.570;7.244;2022-12-07T09:02:10;21.35;;;10.23;;
27833;SDS011;15200;50.570;7.244;2022-12-07T09:04:38;18.50;;;10.23;;
27833;SDS011;15200;50.570;7.244;2022-12-07T09:07:05;17.40;;;9.65;;
27833;SDS011;15200;50.570;7.244;2022-12-07T09:09:32;15.47;;;9.87;;
27833;SDS011;15200;50.570;7.244;2022-12-07T09:12:02;19.37;;;9.53;;
27833;SDS011;15200;50.570;7.244;2022-12-07T09:14:29;16.50;;;8.73;;
27833;SDS011;15200;50.570;7.244;2022-12-07T09:17:04;13.60;;;8.35;;
27833;SDS011;15200;50.570;7.244;2022-12-07T09:19:25;13.80;;;8.13;;
27833;SDS011;15200;50.570;7.244;2022-12-07T09:21:52;16.67;;;8.93;;
27833;SDS011;15200;50.570;7.244;2022-12-07T09:24:19;17.83;;;7.80;;
27833;SDS011;15200;50.570;7.244;2022-12-07T09:26:47;13.43;;;7.85;;
27833;SDS011;15200;50.570;7.244;2022-12-07T09:29:14;15.67;;;7.70;;
27833;SDS011;15200;50.570;7.244;2022-12-07T09:31:41;12.75;;;7.00;;
27833;SDS011;15200;50.570;7.244;2022-12-07T09:34:09;14.07;;;7.28;;
27833;SDS011;15200;50.570;7.244;2022-12-07T09:36:36;13.43;;;7.55;;
27833;SDS011;15200;50.570;7.244;2022-12-07T09:39:03;13.90;;;7.03;;
27833;SDS011;15200;50.570;7.244;2022-12-07T09:41:31;11.90;;;6.33;;
27833;SDS011;15200;50.570;7.244;2022-12-07T09:44:10;12.43;;;6.05;;
27833;SDS011;15200;50.570;7.244;2022-12-07T09:46:28;14.87;;;6.22;;
27833;SDS011;15200;50.570;7.244;2022-12-07T09:48:57;10.03;;;6.22;;
27833;SDS011;15200;50.570;7.244;2022-12-07T09:51:24;13.05;;;6.78;;
27833;SDS011;15200;50.570;7.244;2022-12-07T09:53:53;13.45;;;6.55;;
27833;SDS011;15200;50.570;7.244;2022-12-07T09:56:21;14.50;;;6.03;;
27833;SDS011;15200;50.570;7.244;2022-12-07T09:58:49;11.65;;;5.40;;
27833;SDS011;15200;50.570;7.244;2022-12-07T10:01:17;9.55;;;5.42;;
27833;SDS011;15200;50.570;7.244;2022-12-07T10:03:49;14.25;;;5.55;;
27833;SDS011;15200;50.570;7.244;2022-12-07T10:06:14;10.28;;;4.75;;
27833;SDS011;15200;50.570;7.244;2022-12-07T10:08:42;9.98;;;5.45;;
27833;SDS011;15200;50.570;7.244;2022-12-07T10:11:10;6.87;;;5.00;;
27833;SDS011;15200;50.570;7.244;2022-12-07T10:13:38;11.70;;;4.70;;
27833;SDS011;15200;50.570;7.244;2022-12-07T10:16:32;13.15;;;5.65;;
27833;SDS011;15200;50.570;7.244;2022-12-07T10:18:36;10.70;;;4.97;;
27833;SDS011;15200;50.570;7.244;2022-12-07T10:24:28;8.60;;;4.12;;
27833;SDS011;15200;50.570;7.244;2022-12-07T10:26:30;6.15;;;3.67;;
27833;SDS011;15200;50.570;7.244;2022-12-07T10:29:32;8.70;;;3.97;;
27833;SDS011;15200;50.570;7.244;2022-12-07T10:31:33;6.22;;;3.77;;
27833;SDS011;15200;50.570;7.244;2022-12-07T10:34:01;10.50;;;3.65;;
27833;SDS011;15200;50.570;7.244;2022-12-07T10:39:12;4.37;;;2.72;;
27833;SDS011;15200;50.570;7.244;2022-12-07T10:44:26;4.75;;;2.65;;
27833;SDS011;15200;50.570;7.244;2022-12-07T10:51:21;6.03;;;3.02;;
27833;SDS011;15200;50.570;7.244;2022-12-07T10:57:36;3.87;;;2.15;;
27833;SDS011;15200;50.570;7.244;2022-12-07T11:00:15;4.60;;;1.77;;
27833;SDS011;15200;50.570;7.244;2022-12-07T11:02:46;4.22;;;1.77;;
27833;SDS011;15200;50.570;7.244;2022-12-07T11:08:56;4.35;;;2.37;;
27833;SDS011;15200;50.570;7.244;2022-12-07T11:10:44;8.83;;;2.17;;
27833;SDS011;15200;50.570;7.244;2022-12-07T11:13:23;5.95;;;2.25;;
27833;SDS011;15200;50.570;7.244;2022-12-07T11:18:35;3.62;;;2.40;;
27833;SDS011;15200;50.570;7.244;2022-12-07T11:21:10;7.33;;;2.65;;
27833;SDS011;15200;50.570;7.244;2022-12-07T11:26:27;4.28;;;2.25;;
27833;SDS011;15200;50.570;7.244;2022-12-07T11:28:57;4.42;;;2.35;;
27833;SDS011;15200;50.570;7.244;2022-12-07T11:31:33;5.47;;;2.70;;
27833;SDS011;15200;50.570;7.244;2022-12-07T11:34:16;5.97;;;2.65;;
27833;SDS011;15200;50.570;7.244;2022-12-07T11:39:13;6.22;;;2.10;;
27833;SDS011;15200;50.570;7.244;2022-12-07T11:41:38;4.30;;;2.02;;
27833;SDS011;15200;50.570;7.244;2022-12-07T11:44:07;4.17;;;1.35;;
27833;SDS011;15200;50.570;7.244;2022-12-07T11:46:51;6.30;;;1.62;;
27833;SDS011;15200;50.570;7.244;2022-12-07T11:52:04;6.50;;;2.50;;
27833;SDS011;15200;50.570;7.244;2022-12-07T11:54:35;10.08;;;2.33;;
27833;SDS011;15200;50.570;7.244;2022-12-07T11:57:03;5.00;;;2.37;;
27833;SDS011;15200;50.570;7.244;2022-12-07T11:59:33;7.22;;;2.22;;
27833;SDS011;15200;50.570;7.244;2022-12-07T12:02:10;5.70;;;2.10;;
27833;SDS011;15200;50.570;7.244;2022-12-07T12:04:45;4.30;;;2.12;;
27833;SDS011;15200;50.570;7.244;2022-12-07T12:07:10;6.50;;;2.42;;
27833;SDS011;15200;50.570;7.244;2022-12-07T12:09:48;4.95;;;2.45;;
27833;SDS011;15200;50.570;7.244;2022-12-07T12:14:59;3.98;;;2.05;;
27833;SDS011;15200;50.570;7.244;2022-12-07T12:17:47;4.00;;;2.00;;
27833;SDS011;15200;50.570;7.244;2022-12-07T12:20:17;6.60;;;2.13;;
27833;SDS011;15200;50.570;7.244;2022-12-07T12:22:45;8.03;;;2.75;;
27833;SDS011;15200;50.570;7.244;2022-12-07T12:25:18;4.90;;;2.12;;
27833;SDS011;15200;50.570;7.244;2022-12-07T12:27:42;5.60;;;2.20;;
27833;SDS011;15200;50.570;7.244;2022-12-07T12:32:51;5.45;;;2.00;;
27833;SDS011;15200;50.570;7.244;2022-12-07T12:37:47;5.53;;;2.00;;
27833;SDS011;15200;50.570;7.244;2022-12-07T12:42:44;6.80;;;2.10;;
27833;SDS011;15200;50.570;7.244;2022-12-07T12:45:24;9.15;;;1.72;;
27833;SDS011;15200;50.570;7.244;2022-12-07T12:47:53;6.67;;;2.20;;
27833;SDS011;15200;50.570;7.244;2022-12-07T12:50:33;3.35;;;1.98;;
27833;SDS011;15200;50.570;7.244;2022-12-07T12:53:20;3.10;;;1.77;;
27833;SDS011;15200;50.570;7.244;2022-12-07T12:56:03;8.43;;;2.25;;
27833;SDS011;15200;50.570;7.244;2022-12-07T12:58:31;4.00;;;2.30;;
27833;SDS011;15200;50.570;7.244;2022-12-07T13:03:40;3.50;;;2.17;;
27833;SDS011;15200;50.570;7.244;2022-12-07T13:08:56;8.55;;;2.83;;
27833;SDS011;15200;50.570;7.244;2022-12-07T13:11:29;7.05;;;2.85;;
27833;SDS011;15200;50.570;7.244;2022-12-07T13:16:41;6.42;;;3.40;;
27833;SDS011;15200;50.570;7.244;2022-12-07T13:19:54;8.85;;;2.77;;
27833;SDS011;15200;50.570;7.244;2022-12-07T13:24:07;5.92;;;2.22;;
27833;SDS011;15200;50.570;7.244;2022-12-07T13:26:35;11.45;;;2.87;;
27833;SDS011;15200;50.570;7.244;2022-12-07T13:31:41;10.65;;;3.50;;
27833;SDS011;15200;50.570;7.244;2022-12-07T13:36:56;4.92;;;2.83;;
27833;SDS011;15200;50.570;7.244;2022-12-07T13:39:25;9.33;;;3.25;;
27833;SDS011;15200;50.570;7.244;2022-12-07T13:41:53;10.05;;;3.10;;
27833;SDS011;15200;50.570;7.244;2022-12-07T13:44:23;9.73;;;3.40;;
27833;SDS011;15200;50.570;7.244;2022-12-07T13:47:03;11.48;;;3.52;;
27833;SDS011;15200;50.570;7.244;2022-12-07T13:49:29;8.53;;;3.60;;
27833;SDS011;15200;50.570;7.244;2022-12-07T13:52:16;5.25;;;1.90;;
27833;SDS011;15200;50.570;7.244;2022-12-07T13:54:49;2.95;;;1.22;;
27833;SDS011;15200;50.570;7.244;2022-12-07T13:57:15;4.42;;;1.52;;
27833;SDS011;15200;50.570;7.244;2022-12-07T13:59:43;4.20;;;2.40;;
27833;SDS011;15200;50.570;7.244;2022-12-07T14:02:21;6.22;;;2.65;;
27833;SDS011;15200;50.570;7.244;2022-12-07T14:04:50;11.20;;;3.00;;
27833;SDS011;15200;50.570;7.244;2022-12-07T14:07:19;10.28;;;2.90;;
27833;SDS011;15200;50.570;7.244;2022-12-07T14:09:57;8.75;;;3.50;;
27833;SDS011;15200;50.570;7.244;2022-12-07T14:12:25;11.33;;;3.27;;
27833;SDS011;15200;50.570;7.244;2022-12-07T14:14:53;6.20;;;3.20;;
27833;SDS011;15200;50.570;7.244;2022-12-07T14:17:22;7.08;;;3.15;;
27833;SDS011;15200;50.570;7.244;2022-12-07T14:19:50;8.38;;;3.22;;
27833;SDS011;15200;50.570;7.244;2022-12-07T14:22:24;6.75;;;3.72;;
27833;SDS011;15200;50.570;7.244;2022-12-07T14:24:48;5.08;;;3.20;;
27833;SDS011;15200;50.570;7.244;2022-12-07T14:27:23;7.30;;;3.35;;
27833;SDS011;15200;50.570;7.244;2022-12-07T14:29:47;7.55;;;3.10;;
27833;SDS011;15200;50.570;7.244;2022-12-07T14:32:19;11.45;;;4.08;;
27833;SDS011;15200;50.570;7.244;2022-12-07T14:34:57;6.87;;;3.42;;
27833;SDS011;15200;50.570;7.244;2022-12-07T14:37:21;7.92;;;3.60;;
27833;SDS011;15200;50.570;7.244;2022-12-07T14:39:48;8.18;;;3.72;;
27833;SDS011;15200;50.570;7.244;2022-12-07T14:42:16;8.33;;;3.77;;
27833;SDS011;15200;50.570;7.244;2022-12-07T14:44:43;7.20;;;3.80;;
27833;SDS011;15200;50.570;7.244;2022-12-07T14:47:12;8.03;;;3.80;;
27833;SDS011;15200;50.570;7.244;2022-12-07T14:49:40;8.90;;;4.45;;
27833;SDS011;15200;50.570;7.244;2022-12-07T14:52:13;7.55;;;4.25;;
27833;SDS011;15200;50.570;7.244;2022-12-07T14:54:37;11.80;;;4.35;;
27833;SDS011;15200;50.570;7.244;2022-12-07T14:57:04;9.88;;;4.22;;
27833;SDS011;15200;50.570;7.244;2022-12-07T14:59:31;6.53;;;3.92;;
27833;SDS011;15200;50.570;7.244;2022-12-07T15:01:59;8.18;;;4.17;;
27833;SDS011;15200;50.570;7.244;2022-12-07T15:04:26;7.90;;;4.28;;
27833;SDS011;15200;50.570;7.244;2022-12-07T15:06:57;10.23;;;4.78;;
27833;SDS011;15200;50.570;7.244;2022-12-07T15:09:25;10.18;;;4.53;;
27833;SDS011;15200;50.570;7.244;2022-12-07T15:11:52;7.92;;;4.05;;
27833;SDS011;15200;50.570;7.244;2022-12-07T15:14:19;10.53;;;4.97;;
27833;SDS011;15200;50.570;7.244;2022-12-07T15:16:47;8.27;;;4.70;;
27833;SDS011;15200;50.570;7.244;2022-12-07T15:19:15;11.15;;;5.28;;
27833;SDS011;15200;50.570;7.244;2022-12-07T15:21:42;10.65;;;5.45;;
27833;SDS011;15200;50.570;7.244;2022-12-07T15:24:10;11.08;;;4.78;;
27833;SDS011;15200;50.570;7.244;2022-12-07T15:26:38;8.65;;;4.60;;
27833;SDS011;15200;50.570;7.244;2022-12-07T15:29:06;8.43;;;5.22;;
27833;SDS011;15200;50.570;7.244;2022-12-07T15:31:33;5.85;;;4.28;;
27833;SDS011;15200;50.570;7.244;2022-12-07T15:34:01;8.25;;;4.25;;
27833;SDS011;15200;50.570;7.244;2022-12-07T15:36:29;10.35;;;4.58;;
27833;SDS011;15200;50.570;7.244;2022-12-07T15:38:57;5.75;;;4.35;;
27833;SDS011;15200;50.570;7.244;2022-12-07T15:41:24;7.50;;;4.08;;
27833;SDS011;15200;50.570;7.244;2022-12-07T15:43:52;5.87;;;3.90;;
27833;SDS011;15200;50.570;7.244;2022-12-07T15:46:39;7.22;;;3.62;;
27833;SDS011;15200;50.570;7.244;2022-12-07T15:49:08;9.13;;;3.40;;
27833;SDS011;15200;50.570;7.244;2022-12-07T15:51:35;7.62;;;4.10;;
27833;SDS011;15200;50.570;7.244;2022-12-07T15:54:02;5.92;;;3.08;;
27833;SDS011;15200;50.570;7.244;2022-12-07T15:56:30;8.15;;;4.00;;